createdAt,value
2023-05-04T00:00:16.374Z,24.00
2023-05-04T00:02:45.676Z,23.97
2023-05-04T00:04:58.911Z,23.96
2023-05-04T00:07:08.476Z,23.95
2023-05-04T00:09:17.564Z,23.90
2023-05-04T00:11:27.090Z,23.88
2023-05-04T00:13:36.367Z,23.84
2023-05-04T00:15:45.867Z,23.74
2023-05-04T00:17:57.040Z,23.67
2023-05-04T00:20:06.832Z,23.56
2023-05-04T00:22:16.147Z,23.42
2023-05-04T00:24:25.577Z,23.37
2023-05-04T00:26:35.162Z,23.32
2023-05-04T00:28:44.269Z,23.24
2023-05-04T00:30:54.746Z,23.16
2023-05-04T00:33:03.860Z,23.09
2023-05-04T00:35:15.911Z,23.00
2023-05-04T00:37:23.360Z,22.93
2023-05-04T00:39:35.519Z,22.85
2023-05-04T00:41:44.952Z,22.76
2023-05-04T00:43:54.364Z,22.71
2023-05-04T00:46:03.509Z,22.62
2023-05-04T00:48:12.953Z,22.56
2023-05-04T00:50:24.039Z,22.49
2023-05-04T00:52:33.483Z,22.47
2023-05-04T00:54:43.308Z,22.39
2023-05-04T00:56:53.517Z,22.34
2023-05-04T00:59:02.780Z,22.28
2023-05-04T01:01:12.033Z,22.24
2023-05-04T01:03:21.470Z,22.22
2023-05-04T01:05:36.893Z,22.19
2023-05-04T01:07:59.828Z,22.11
2023-05-04T01:10:16.540Z,22.06
2023-05-04T01:12:37.682Z,22.04
2023-05-04T01:14:48.482Z,21.97
2023-05-04T01:17:01.824Z,21.92
2023-05-04T01:19:11.030Z,21.88
2023-05-04T01:21:20.072Z,21.86
2023-05-04T01:23:29.414Z,21.85
2023-05-04T01:25:46.713Z,21.85
2023-05-04T01:28:01.190Z,21.84
2023-05-04T01:30:15.862Z,21.83
2023-05-04T01:32:29.333Z,21.79
2023-05-04T01:34:40.569Z,21.77
2023-05-04T01:36:50.080Z,21.76
2023-05-04T01:39:01.430Z,21.73
2023-05-04T01:41:10.598Z,21.71
2023-05-04T01:43:19.893Z,21.70
2023-05-04T01:45:29.197Z,21.67
2023-05-04T01:47:38.615Z,21.63
2023-05-04T01:49:47.728Z,21.61
2023-05-04T01:51:58.308Z,21.60
2023-05-04T01:54:07.617Z,21.58
2023-05-04T01:56:17.671Z,21.52
2023-05-04T01:58:27.509Z,21.45
2023-05-04T02:00:36.556Z,21.36
2023-05-04T02:02:45.869Z,21.30
2023-05-04T02:04:59.206Z,21.26
2023-05-04T02:07:08.376Z,21.19
2023-05-04T02:09:18.034Z,21.14
2023-05-04T02:11:27.476Z,21.08
2023-05-04T02:13:36.972Z,21.03
2023-05-04T02:15:48.214Z,21.02
2023-05-04T02:17:59.582Z,21.02
2023-05-04T02:20:11.006Z,21.04
2023-05-04T02:22:20.291Z,21.07
2023-05-04T02:24:29.963Z,21.12
2023-05-04T02:26:39.092Z,21.14
2023-05-04T02:28:48.627Z,21.16
2023-05-04T02:30:58.115Z,21.16
2023-05-04T02:33:07.388Z,21.16
2023-05-04T02:35:16.429Z,21.16
2023-05-04T02:37:25.933Z,21.16
2023-05-04T02:39:35.076Z,21.15
2023-05-04T02:41:44.250Z,21.12
2023-05-04T02:43:53.433Z,21.07
2023-05-04T02:46:02.768Z,21.00
2023-05-04T02:48:11.989Z,20.95
2023-05-04T02:50:21.366Z,20.92
2023-05-04T02:52:30.615Z,20.86
2023-05-04T02:54:40.139Z,20.77
2023-05-04T02:56:49.304Z,20.68
2023-05-04T02:58:58.908Z,20.61
2023-05-04T03:01:08.219Z,20.56
2023-05-04T03:03:17.481Z,20.53
2023-05-04T03:05:27.161Z,20.50
2023-05-04T03:07:36.474Z,20.47
2023-05-04T03:09:47.521Z,20.43
2023-05-04T03:12:00.121Z,20.39
2023-05-04T03:14:09.737Z,20.35
2023-05-04T03:16:19.215Z,20.32
2023-05-04T03:18:28.883Z,20.30
2023-05-04T03:20:38.168Z,20.29
2023-05-04T03:22:49.057Z,20.28
2023-05-04T03:24:58.535Z,20.27
2023-05-04T03:27:07.719Z,20.26
2023-05-04T03:29:17.796Z,20.24
2023-05-04T03:31:27.309Z,20.20
2023-05-04T03:33:36.715Z,20.15
2023-05-04T03:35:46.047Z,20.11
2023-05-04T03:37:55.087Z,20.07
2023-05-04T03:40:04.607Z,20.02
2023-05-04T03:42:14.193Z,19.99
2023-05-04T03:44:23.442Z,19.95
2023-05-04T03:46:32.922Z,19.94
2023-05-04T03:48:42.522Z,19.91
2023-05-04T03:50:54.063Z,19.88
2023-05-04T03:53:03.434Z,19.88
2023-05-04T03:55:13.942Z,19.88
2023-05-04T03:57:24.514Z,19.89
2023-05-04T03:59:35.257Z,19.85
2023-05-04T04:01:46.421Z,19.86
2023-05-04T04:03:59.539Z,19.85
2023-05-04T04:06:10.090Z,19.83
2023-05-04T04:08:19.726Z,19.85
2023-05-04T04:10:30.099Z,19.85
2023-05-04T04:12:39.205Z,19.84
2023-05-04T04:14:49.202Z,19.83
2023-05-04T04:16:58.820Z,19.82
2023-05-04T04:19:08.292Z,19.79
2023-05-04T04:21:17.515Z,19.76
2023-05-04T04:23:26.589Z,19.73
2023-05-04T04:25:35.848Z,19.68
2023-05-04T04:27:44.930Z,19.64
2023-05-04T04:29:54.381Z,19.58
2023-05-04T04:32:03.864Z,19.53
2023-05-04T04:34:13.016Z,19.49
2023-05-04T04:36:22.119Z,19.44
2023-05-04T04:38:31.319Z,19.40
2023-05-04T04:40:40.431Z,19.34
2023-05-04T04:42:49.494Z,19.28
2023-05-04T04:44:58.918Z,19.23
2023-05-04T04:47:08.164Z,19.19
2023-05-04T04:49:18.147Z,19.14
2023-05-04T04:51:27.396Z,19.02
2023-05-04T04:53:36.495Z,18.88
2023-05-04T04:55:46.013Z,18.75
2023-05-04T04:57:55.970Z,18.66
2023-05-04T05:00:09.642Z,18.58
2023-05-04T05:02:18.822Z,18.51
2023-05-04T05:04:28.027Z,18.46
2023-05-04T05:06:38.126Z,18.42
2023-05-04T05:08:47.147Z,18.38
2023-05-04T05:10:56.591Z,18.33
2023-05-04T05:13:06.059Z,18.27
2023-05-04T05:15:16.025Z,18.22
2023-05-04T05:17:28.648Z,18.17
2023-05-04T05:19:38.823Z,18.12
2023-05-04T05:21:47.838Z,18.06
2023-05-04T05:23:57.056Z,17.99
2023-05-04T05:26:06.690Z,17.94
2023-05-04T05:28:17.801Z,17.91
2023-05-04T05:30:28.782Z,17.84
2023-05-04T05:32:38.178Z,17.77
2023-05-04T05:34:47.685Z,17.73
2023-05-04T05:36:56.748Z,17.71
2023-05-04T05:39:06.518Z,17.70
2023-05-04T05:41:16.524Z,17.71
2023-05-04T05:43:25.584Z,17.71
2023-05-04T05:45:34.967Z,17.73
2023-05-04T05:47:44.136Z,17.74
2023-05-04T05:49:53.354Z,17.75
2023-05-04T05:52:02.551Z,17.75
2023-05-04T05:54:11.659Z,17.75
2023-05-04T05:56:20.830Z,17.75
2023-05-04T05:58:30.181Z,17.76
2023-05-04T06:00:39.733Z,17.76
2023-05-04T06:02:48.865Z,17.74
2023-05-04T06:04:58.149Z,17.70
2023-05-04T06:07:07.569Z,17.67
2023-05-04T06:09:17.204Z,17.66
2023-05-04T06:11:26.276Z,17.65
2023-05-04T06:13:35.840Z,17.63
2023-05-04T06:15:52.071Z,17.59
2023-05-04T06:18:01.821Z,17.56
2023-05-04T06:20:13.404Z,17.54
2023-05-04T06:22:22.618Z,17.53
2023-05-04T06:24:32.032Z,17.51
2023-05-04T06:26:41.118Z,17.46
2023-05-04T06:28:50.417Z,17.43
2023-05-04T06:31:00.111Z,17.40
2023-05-04T06:33:09.218Z,17.38
2023-05-04T06:35:19.316Z,17.36
2023-05-04T06:37:28.700Z,17.34
2023-05-04T06:39:38.349Z,17.32
2023-05-04T06:41:47.817Z,17.31
2023-05-04T06:44:00.626Z,17.31
2023-05-04T06:46:09.820Z,17.31
2023-05-04T06:48:18.931Z,17.31
2023-05-04T06:50:28.141Z,17.31
2023-05-04T06:52:37.401Z,17.29
2023-05-04T06:54:46.555Z,17.28
2023-05-04T06:56:55.858Z,17.27
2023-05-04T06:59:06.261Z,17.24
2023-05-04T07:01:16.968Z,17.21
2023-05-04T07:03:28.677Z,17.17
2023-05-04T07:05:39.701Z,17.13
2023-05-04T07:07:51.029Z,17.09
2023-05-04T07:10:00.474Z,17.05
2023-05-04T07:12:10.079Z,17.02
2023-05-04T07:14:19.077Z,16.99
2023-05-04T07:16:28.174Z,16.96
2023-05-04T07:18:39.171Z,16.90
2023-05-04T07:20:48.330Z,16.86
2023-05-04T07:22:58.683Z,16.79
2023-05-04T07:25:08.978Z,16.74
2023-05-04T07:27:18.070Z,16.73
2023-05-04T07:29:27.891Z,16.68
2023-05-04T07:31:38.687Z,16.66
2023-05-04T07:33:47.985Z,16.62
2023-05-04T07:36:02.144Z,16.57
2023-05-04T07:38:11.450Z,16.53
2023-05-04T07:40:21.801Z,16.50
2023-05-04T07:42:31.429Z,16.46
2023-05-04T07:44:40.472Z,16.43
2023-05-04T07:46:49.498Z,16.41
2023-05-04T07:48:58.803Z,16.38
2023-05-04T07:51:08.376Z,16.35
2023-05-04T07:53:17.446Z,16.33
2023-05-04T07:55:26.758Z,16.31
2023-05-04T07:57:38.159Z,16.26
2023-05-04T07:59:47.346Z,16.22
2023-05-04T08:01:56.862Z,16.17
2023-05-04T08:04:06.220Z,16.10
2023-05-04T08:06:15.322Z,16.05
2023-05-04T08:08:25.017Z,16.00
2023-05-04T08:10:37.208Z,15.96
2023-05-04T08:12:46.422Z,15.92
2023-05-04T08:14:55.528Z,15.89
2023-05-04T08:17:05.052Z,15.85
2023-05-04T08:19:14.449Z,15.79
2023-05-04T08:21:23.580Z,15.74
2023-05-04T08:23:32.998Z,15.70
2023-05-04T08:25:42.180Z,15.67
2023-05-04T08:27:51.339Z,15.64
2023-05-04T08:30:02.391Z,15.60
2023-05-04T08:32:12.192Z,15.54
2023-05-04T08:34:21.642Z,15.48
2023-05-04T08:36:30.785Z,15.43
2023-05-04T08:38:40.393Z,15.39
2023-05-04T08:40:50.555Z,15.34
2023-05-04T08:43:00.916Z,15.31
2023-05-04T08:45:11.925Z,15.28
2023-05-04T08:47:21.174Z,15.23
2023-05-04T08:49:30.918Z,15.18
2023-05-04T08:51:41.135Z,15.14
2023-05-04T08:53:51.936Z,15.09
2023-05-04T08:56:04.726Z,15.05
2023-05-04T08:58:15.522Z,15.01
2023-05-04T09:00:25.433Z,14.97
2023-05-04T09:02:36.393Z,14.93
2023-05-04T09:04:45.636Z,14.86
2023-05-04T09:06:55.362Z,14.82
2023-05-04T09:09:04.875Z,14.76
2023-05-04T09:11:14.058Z,14.72
2023-05-04T09:13:23.234Z,14.66
2023-05-04T09:15:32.943Z,14.63
2023-05-04T09:17:57.109Z,14.60
2023-05-04T09:20:08.579Z,14.59
2023-05-04T09:22:19.553Z,14.56
2023-05-04T09:24:32.151Z,14.54
2023-05-04T09:26:41.420Z,14.52
2023-05-04T09:28:50.749Z,14.49
2023-05-04T09:31:03.823Z,14.48
2023-05-04T09:33:13.465Z,14.47
2023-05-04T09:35:33.592Z,14.44
2023-05-04T09:37:49.049Z,14.41
2023-05-04T09:40:00.285Z,14.38
2023-05-04T09:42:21.017Z,14.36
2023-05-04T09:44:30.678Z,14.34
2023-05-04T09:46:39.903Z,14.32
2023-05-04T09:48:57.106Z,14.29
2023-05-04T09:51:07.686Z,14.25
2023-05-04T09:53:18.292Z,14.21
2023-05-04T09:55:28.783Z,14.17
2023-05-04T09:57:38.566Z,14.15
2023-05-04T09:59:47.749Z,14.09
2023-05-04T10:01:58.673Z,14.11
2023-05-04T10:04:11.184Z,14.10
2023-05-04T10:06:21.473Z,14.07
2023-05-04T10:08:31.383Z,14.05
2023-05-04T10:10:42.415Z,14.03
2023-05-04T10:12:51.501Z,14.02
2023-05-04T10:15:00.596Z,14.00
2023-05-04T10:17:19.462Z,13.98
2023-05-04T10:19:56.755Z,13.95
2023-05-04T10:22:19.176Z,13.92
2023-05-04T10:25:08.745Z,13.88
2023-05-04T10:27:20.513Z,13.83
2023-05-04T10:29:31.216Z,13.80
2023-05-04T10:31:45.289Z,13.77
2023-05-04T10:33:54.608Z,13.74
2023-05-04T10:36:04.080Z,13.71
2023-05-04T10:38:14.958Z,13.67
2023-05-04T10:40:33.764Z,13.65
2023-05-04T10:42:46.953Z,13.62
2023-05-04T10:44:57.740Z,13.60
2023-05-04T10:47:09.103Z,13.58
2023-05-04T10:49:21.277Z,13.56
2023-05-04T10:51:42.358Z,13.54
2023-05-04T10:53:57.946Z,13.53
2023-05-04T10:56:07.764Z,13.53
2023-05-04T10:58:20.538Z,13.51
2023-05-04T11:00:39.819Z,13.49
2023-05-04T11:02:49.925Z,13.46
2023-05-04T11:05:18.684Z,13.44
2023-05-04T11:07:37.002Z,13.45
2023-05-04T11:09:46.419Z,13.44
2023-05-04T11:11:56.902Z,13.44
2023-05-04T11:14:06.726Z,13.45
2023-05-04T11:16:16.071Z,13.45
2023-05-04T11:18:32.288Z,13.46
2023-05-04T11:20:41.802Z,13.47
2023-05-04T11:22:51.018Z,13.47
2023-05-04T11:25:00.347Z,13.47
2023-05-04T11:27:09.460Z,13.47
2023-05-04T11:29:19.667Z,13.45
2023-05-04T11:31:28.896Z,13.45
2023-05-04T11:33:39.087Z,13.44
2023-05-04T11:35:48.435Z,13.43
2023-05-04T11:37:58.383Z,13.42
2023-05-04T11:40:13.407Z,13.42
2023-05-04T11:42:22.637Z,13.41
2023-05-04T11:44:32.677Z,13.41
2023-05-04T11:46:42.530Z,13.40
2023-05-04T11:48:52.168Z,13.41
2023-05-04T11:51:01.828Z,13.40
2023-05-04T11:53:13.880Z,13.40
2023-05-04T11:55:33.060Z,13.39
2023-05-04T11:57:42.509Z,13.39
2023-05-04T11:59:53.936Z,13.37
2023-05-04T12:02:03.475Z,13.35
2023-05-04T12:04:12.696Z,13.33
2023-05-04T12:06:21.916Z,13.30
2023-05-04T12:08:35.019Z,13.28
2023-05-04T12:10:44.159Z,13.27
2023-05-04T12:12:53.403Z,13.24
2023-05-04T12:15:02.770Z,13.22
2023-05-04T12:17:11.897Z,13.21
2023-05-04T12:19:20.975Z,13.18
2023-05-04T12:21:29.989Z,13.14
2023-05-04T12:23:39.894Z,13.10
2023-05-04T12:25:57.720Z,13.08
2023-05-04T12:28:07.940Z,13.07
2023-05-04T12:30:18.119Z,13.06
2023-05-04T12:32:27.326Z,13.06
2023-05-04T12:34:36.677Z,13.05
2023-05-04T12:36:45.809Z,13.05
2023-05-04T12:38:55.325Z,13.04
2023-05-04T12:41:04.739Z,13.03
2023-05-04T12:43:13.770Z,13.04
2023-05-04T12:45:23.681Z,13.04
2023-05-04T12:47:33.794Z,13.03
2023-05-04T12:49:42.893Z,13.04
2023-05-04T12:51:52.203Z,13.04
2023-05-04T12:54:01.662Z,13.05
2023-05-04T12:56:10.852Z,13.05
2023-05-04T12:58:20.011Z,13.05
2023-05-04T13:00:31.721Z,13.04
2023-05-04T13:02:41.050Z,13.01
2023-05-04T13:04:50.152Z,13.00
2023-05-04T13:06:59.284Z,12.98
2023-05-04T13:09:09.301Z,12.98
2023-05-04T13:11:19.997Z,12.97
2023-05-04T13:13:29.944Z,12.97
2023-05-04T13:15:40.253Z,12.97
2023-05-04T13:17:49.373Z,12.96
2023-05-04T13:19:58.414Z,12.96
2023-05-04T13:22:07.744Z,12.95
2023-05-04T13:24:16.777Z,12.94
2023-05-04T13:26:25.894Z,12.94
2023-05-04T13:28:36.287Z,12.94
2023-05-04T13:30:45.014Z,12.94
2023-05-04T13:32:54.178Z,12.94
2023-05-04T13:35:04.621Z,12.94
2023-05-04T13:37:18.564Z,12.94
2023-05-04T13:39:28.534Z,12.95
2023-05-04T13:41:37.794Z,12.96
2023-05-04T13:43:47.198Z,12.95
2023-05-04T13:45:57.316Z,12.98
2023-05-04T13:48:06.970Z,13.00
2023-05-04T13:50:16.490Z,13.00
2023-05-04T13:52:25.622Z,12.99
2023-05-04T13:54:35.567Z,12.99
2023-05-04T13:56:44.659Z,12.99
2023-05-04T13:58:54.188Z,12.98
2023-05-04T14:01:03.596Z,12.97
2023-05-04T14:03:13.055Z,12.98
2023-05-04T14:05:22.405Z,12.96
2023-05-04T14:07:31.560Z,12.95
2023-05-04T14:09:41.664Z,12.93
2023-05-04T14:11:50.743Z,12.91
2023-05-04T14:14:00.182Z,12.90
2023-05-04T14:16:10.088Z,12.89
2023-05-04T14:18:19.170Z,12.88
2023-05-04T14:20:28.435Z,12.86
2023-05-04T14:22:41.461Z,12.85
2023-05-04T14:24:50.732Z,12.84
2023-05-04T14:27:00.221Z,12.82
2023-05-04T14:29:09.474Z,12.81
2023-05-04T14:31:18.619Z,12.79
2023-05-04T14:33:27.841Z,12.78
2023-05-04T14:35:37.729Z,12.77
2023-05-04T14:37:49.711Z,12.75
2023-05-04T14:39:56.931Z,12.74
2023-05-04T14:42:06.422Z,12.70
2023-05-04T14:44:15.798Z,12.66
2023-05-04T14:46:24.944Z,12.63
2023-05-04T14:48:34.568Z,12.62
2023-05-04T14:50:44.004Z,12.61
2023-05-04T14:52:53.094Z,12.58
2023-05-04T14:55:02.935Z,12.55
2023-05-04T14:57:12.806Z,12.52
2023-05-04T14:59:21.918Z,12.50
2023-05-04T15:01:33.816Z,12.50
2023-05-04T15:03:42.558Z,12.50
2023-05-04T15:05:51.950Z,12.48
2023-05-04T15:08:01.588Z,12.45
2023-05-04T15:10:13.979Z,12.44
2023-05-04T15:12:23.329Z,12.44
2023-05-04T15:14:32.570Z,12.44
2023-05-04T15:16:42.095Z,12.43
2023-05-04T15:18:51.229Z,12.41
2023-05-04T15:21:00.618Z,12.39
2023-05-04T15:23:11.762Z,12.38
2023-05-04T15:25:23.846Z,12.36
2023-05-04T15:27:33.141Z,12.35
2023-05-04T15:29:42.760Z,12.36
2023-05-04T15:31:51.968Z,12.38
2023-05-04T15:34:01.943Z,12.42
2023-05-04T15:36:12.005Z,12.45
2023-05-04T15:38:21.242Z,12.47
2023-05-04T15:40:31.661Z,12.50
2023-05-04T15:42:40.970Z,12.54
2023-05-04T15:44:50.099Z,12.56
2023-05-04T15:46:59.151Z,12.56
2023-05-04T15:49:08.744Z,12.57
2023-05-04T15:51:17.790Z,12.56
2023-05-04T15:53:26.985Z,12.56
2023-05-04T15:55:39.114Z,12.56
2023-05-04T15:57:48.350Z,12.55
2023-05-04T15:59:59.599Z,12.56
2023-05-04T16:02:09.825Z,12.55
2023-05-04T16:04:20.000Z,12.51
2023-05-04T16:06:29.388Z,12.45
2023-05-04T16:08:38.653Z,12.41
2023-05-04T16:10:48.126Z,12.39
2023-05-04T16:12:57.234Z,12.37
2023-05-04T16:15:07.203Z,12.39
2023-05-04T16:17:16.867Z,12.41
2023-05-04T16:19:26.254Z,12.43
2023-05-04T16:21:35.475Z,12.44
2023-05-04T16:23:44.981Z,12.43
2023-05-04T16:25:54.087Z,12.41
2023-05-04T16:28:03.365Z,12.40
2023-05-04T16:30:15.913Z,12.40
2023-05-04T16:32:25.284Z,12.40
2023-05-04T16:34:34.496Z,12.41
2023-05-04T16:36:44.445Z,12.43
2023-05-04T16:38:53.561Z,12.44
2023-05-04T16:41:03.251Z,12.45
2023-05-04T16:43:12.613Z,12.45
2023-05-04T16:45:25.175Z,12.43
2023-05-04T16:47:34.251Z,12.41
2023-05-04T16:49:43.900Z,12.34
2023-05-04T16:51:54.008Z,12.27
2023-05-04T16:54:03.141Z,12.21
2023-05-04T16:56:17.704Z,12.15
2023-05-04T16:58:27.183Z,12.12
2023-05-04T17:00:36.920Z,12.06
2023-05-04T17:02:46.142Z,12.00
2023-05-04T17:04:55.708Z,11.99
2023-05-04T17:07:04.944Z,11.98
2023-05-04T17:09:14.361Z,11.97
2023-05-04T17:11:24.296Z,11.97
2023-05-04T17:13:33.425Z,11.96
2023-05-04T17:15:43.028Z,11.95
2023-05-04T17:17:52.331Z,11.94
2023-05-04T17:20:01.443Z,11.94
2023-05-04T17:22:11.506Z,11.94
2023-05-04T17:24:20.863Z,11.93
2023-05-04T17:26:30.326Z,11.90
2023-05-04T17:28:39.526Z,11.85
2023-05-04T17:30:48.719Z,11.77
2023-05-04T17:32:58.049Z,11.74
2023-05-04T17:35:20.265Z,11.69
2023-05-04T17:37:34.011Z,11.64
2023-05-04T17:39:43.493Z,11.59
2023-05-04T17:41:52.934Z,11.56
2023-05-04T17:44:02.143Z,11.52
2023-05-04T17:46:11.465Z,11.52
2023-05-04T17:48:20.823Z,11.53
2023-05-04T17:50:30.234Z,11.54
2023-05-04T17:52:39.683Z,11.56
2023-05-04T17:54:49.047Z,11.57
2023-05-04T17:56:58.242Z,11.54
2023-05-04T17:59:07.449Z,11.50
2023-05-04T18:01:17.198Z,11.48
2023-05-04T18:03:26.499Z,11.49
2023-05-04T18:05:35.804Z,11.47
2023-05-04T18:07:45.329Z,11.45
2023-05-04T18:09:54.499Z,11.42
2023-05-04T18:12:04.420Z,11.40
2023-05-04T18:14:13.726Z,11.40
2023-05-04T18:16:23.220Z,11.38
2023-05-04T18:18:32.471Z,11.37
2023-05-04T18:20:41.788Z,11.35
2023-05-04T18:22:50.880Z,11.33
2023-05-04T18:24:59.922Z,11.32
2023-05-04T18:27:09.196Z,11.33
2023-05-04T18:29:19.307Z,11.33
2023-05-04T18:31:28.922Z,11.30
2023-05-04T18:33:38.903Z,11.28
2023-05-04T18:35:48.416Z,11.25
2023-05-04T18:37:57.745Z,11.23
2023-05-04T18:40:08.933Z,11.19
2023-05-04T18:42:18.681Z,11.16
2023-05-04T18:44:27.997Z,11.14
2023-05-04T18:46:37.625Z,11.14
2023-05-04T18:48:47.247Z,11.12
2023-05-04T18:50:58.194Z,11.13
2023-05-04T18:53:07.338Z,11.12
2023-05-04T18:55:16.848Z,11.09
2023-05-04T18:57:26.718Z,11.09
2023-05-04T18:59:37.678Z,11.09
2023-05-04T19:01:47.222Z,11.07
2023-05-04T19:03:56.417Z,11.06
2023-05-04T19:06:05.640Z,11.04
2023-05-04T19:08:15.066Z,11.01
2023-05-04T19:10:24.070Z,11.01
2023-05-04T19:12:33.539Z,11.01
2023-05-04T19:14:44.368Z,10.99
2023-05-04T19:16:53.492Z,10.97
2023-05-04T19:19:02.860Z,10.93
2023-05-04T19:21:12.142Z,10.91
2023-05-04T19:23:21.287Z,10.87
2023-05-04T19:25:34.856Z,10.85
2023-05-04T19:27:44.654Z,10.84
2023-05-04T19:29:53.696Z,10.85
2023-05-04T19:32:11.911Z,10.87
2023-05-04T19:34:25.160Z,10.89
2023-05-04T19:36:34.302Z,10.90
2023-05-04T19:38:43.905Z,10.93
2023-05-04T19:40:53.053Z,10.90
2023-05-04T19:43:02.630Z,10.87
2023-05-04T19:45:13.460Z,10.86
2023-05-04T19:47:22.519Z,10.87
2023-05-04T19:49:31.762Z,10.88
2023-05-04T19:51:41.333Z,10.91
2023-05-04T19:53:50.473Z,10.94
2023-05-04T19:55:59.926Z,10.97
2023-05-04T19:58:11.056Z,11.00
2023-05-04T20:00:21.181Z,11.02
2023-05-04T20:02:30.705Z,11.04
2023-05-04T20:04:40.302Z,11.03
2023-05-04T20:06:49.405Z,11.06
2023-05-04T20:08:58.587Z,11.04
2023-05-04T20:11:08.030Z,11.04
2023-05-04T20:13:18.017Z,11.02
2023-05-04T20:15:27.104Z,10.99
2023-05-04T20:17:36.265Z,10.98
2023-05-04T20:19:46.460Z,10.95
2023-05-04T20:21:55.502Z,10.96
2023-05-04T20:24:05.373Z,10.93
2023-05-04T20:26:14.562Z,10.90
2023-05-04T20:28:23.789Z,10.88
2023-05-04T20:30:33.014Z,10.86
2023-05-04T20:32:42.981Z,10.85
2023-05-04T20:34:52.048Z,10.84
2023-05-04T20:37:01.237Z,10.80
2023-05-04T20:39:10.581Z,10.76
2023-05-04T20:41:19.769Z,10.74
2023-05-04T20:43:29.138Z,10.73
2023-05-04T20:45:38.212Z,10.70
2023-05-04T20:47:47.688Z,10.68
2023-05-04T20:49:57.225Z,10.71
2023-05-04T20:52:06.672Z,10.72
2023-05-04T20:54:16.070Z,10.74
2023-05-04T20:56:25.305Z,10.74
2023-05-04T20:58:34.470Z,10.73
2023-05-04T21:00:44.091Z,10.73
2023-05-04T21:02:53.431Z,10.74
2023-05-04T21:05:02.677Z,10.75
2023-05-04T21:07:12.035Z,10.74
2023-05-04T21:09:21.921Z,10.73
2023-05-04T21:11:31.054Z,10.75
2023-05-04T21:13:40.527Z,10.75
2023-05-04T21:15:49.855Z,10.75
2023-05-04T21:17:59.056Z,10.79
2023-05-04T21:20:09.937Z,10.81
2023-05-04T21:22:19.383Z,10.80
2023-05-04T21:24:28.615Z,10.83
2023-05-04T21:26:38.417Z,10.84
2023-05-04T21:28:47.958Z,10.84
2023-05-04T21:30:57.154Z,10.87
2023-05-04T21:33:06.517Z,10.88
2023-05-04T21:35:16.852Z,10.91
2023-05-04T21:37:25.896Z,10.94
2023-05-04T21:39:35.028Z,10.96
2023-05-04T21:41:46.886Z,10.99
2023-05-04T21:43:56.630Z,11.00
2023-05-04T21:46:06.037Z,11.00
2023-05-04T21:48:15.391Z,11.00
2023-05-04T21:50:24.678Z,11.02
2023-05-04T21:52:33.647Z,11.02
2023-05-04T21:54:43.167Z,11.04
2023-05-04T21:56:52.130Z,11.05
2023-05-04T21:59:01.499Z,11.04
2023-05-04T22:01:11.083Z,11.05
2023-05-04T22:03:20.334Z,11.06
2023-05-04T22:05:29.496Z,11.05
2023-05-04T22:07:38.805Z,11.03
2023-05-04T22:09:48.304Z,11.05
2023-05-04T22:11:57.532Z,11.04
2023-05-04T22:14:07.293Z,11.03
2023-05-04T22:16:16.693Z,11.05
2023-05-04T22:18:25.810Z,11.07
2023-05-04T22:20:35.085Z,11.10
2023-05-04T22:22:44.443Z,11.13
2023-05-04T22:24:53.576Z,11.15
2023-05-04T22:27:03.726Z,11.15
2023-05-04T22:29:13.203Z,11.12
2023-05-04T22:31:22.705Z,11.09
2023-05-04T22:33:31.903Z,11.10
2023-05-04T22:35:41.065Z,11.11
2023-05-04T22:37:52.387Z,11.11
2023-05-04T22:40:01.809Z,11.09
2023-05-04T22:42:10.970Z,11.09
2023-05-04T22:44:20.988Z,11.11
2023-05-04T22:46:30.077Z,11.13
2023-05-04T22:48:39.231Z,11.16
2023-05-04T22:50:48.838Z,11.18
2023-05-04T22:52:57.920Z,11.22
2023-05-04T22:55:08.430Z,11.23
2023-05-04T22:57:17.603Z,11.26
2023-05-04T22:59:26.870Z,11.28
2023-05-04T23:01:36.097Z,11.31
2023-05-04T23:03:45.575Z,11.33
2023-05-04T23:05:54.859Z,11.35
2023-05-04T23:08:04.071Z,11.39
2023-05-04T23:10:14.537Z,11.41
2023-05-04T23:12:23.759Z,11.43
2023-05-04T23:14:33.567Z,11.46
2023-05-04T23:16:42.704Z,11.49
2023-05-04T23:18:52.110Z,11.53
2023-05-04T23:21:01.289Z,11.56
2023-05-04T23:23:10.340Z,11.63
2023-05-04T23:25:19.853Z,11.68
2023-05-04T23:27:28.893Z,11.71
2023-05-04T23:29:38.706Z,11.75
2023-05-04T23:31:47.969Z,11.79
2023-05-04T23:33:57.102Z,11.82
2023-05-04T23:36:06.691Z,11.85
2023-05-04T23:38:15.953Z,11.89
2023-05-04T23:40:25.323Z,11.92
2023-05-04T23:42:34.432Z,11.97
2023-05-04T23:44:44.228Z,12.00
2023-05-04T23:46:53.345Z,12.03
2023-05-04T23:49:02.441Z,12.05
2023-05-04T23:51:11.660Z,12.04
2023-05-04T23:53:21.065Z,12.05
2023-05-04T23:55:30.141Z,12.03
2023-05-04T23:57:39.252Z,12.02
2023-05-04T23:59:48.446Z,12.01
